createdAt,value
2023-08-06T00:00:52.814Z,13.54
2023-08-06T00:03:39.555Z,13.30
2023-08-06T00:06:26.161Z,13.34
2023-08-06T00:09:12.823Z,13.23
2023-08-06T00:11:58.984Z,13.20
2023-08-06T00:14:46.033Z,13.05
2023-08-06T00:17:32.627Z,13.20
2023-08-06T00:20:19.161Z,13.04
2023-08-06T00:23:05.568Z,13.20
2023-08-06T00:25:52.032Z,13.03
2023-08-06T00:28:38.430Z,13.20
2023-08-06T00:31:25.164Z,13.07
2023-08-06T00:34:11.778Z,13.03
2023-08-06T00:36:58.135Z,13.16
2023-08-06T00:39:45.490Z,13.11
2023-08-06T00:42:31.762Z,12.90
2023-08-06T00:45:18.317Z,12.95
2023-08-06T00:48:06.326Z,12.87
2023-08-06T00:50:53.335Z,13.10
2023-08-06T00:53:40.946Z,13.03
2023-08-06T00:56:27.700Z,12.90
2023-08-06T00:59:14.356Z,12.82
2023-08-06T01:02:00.507Z,12.78
2023-08-06T01:04:46.996Z,12.87
2023-08-06T01:07:52.552Z,12.84
2023-08-06T01:11:16.627Z,12.77
2023-08-06T01:14:19.415Z,12.75
2023-08-06T01:17:06.077Z,12.53
2023-08-06T01:19:52.393Z,12.79
2023-08-06T01:22:38.790Z,12.49
2023-08-06T01:25:34.333Z,12.62
2023-08-06T01:28:42.405Z,12.78
2023-08-06T01:31:32.658Z,12.85
2023-08-06T01:34:23.499Z,12.88
2023-08-06T01:41:41.825Z,12.61
2023-08-06T01:44:28.289Z,12.58
2023-08-06T01:47:14.549Z,12.56
2023-08-06T01:50:01.665Z,12.86
2023-08-06T01:52:48.262Z,12.49
2023-08-06T01:55:34.491Z,12.61
2023-08-06T01:58:21.030Z,12.61
2023-08-06T02:01:07.256Z,12.31
2023-08-06T02:03:53.505Z,12.30
2023-08-06T02:06:40.037Z,12.54
2023-08-06T02:09:27.510Z,12.37
2023-08-06T02:12:14.134Z,12.35
2023-08-06T02:15:00.532Z,12.47
2023-08-06T02:17:47.131Z,12.22
2023-08-06T02:20:33.622Z,12.28
2023-08-06T02:23:21.273Z,12.23
2023-08-06T02:26:07.654Z,12.26
2023-08-06T02:28:53.863Z,12.12
2023-08-06T02:31:40.295Z,11.94
2023-08-06T02:34:26.663Z,11.81
2023-08-06T02:37:13.163Z,12.18
2023-08-06T02:39:59.691Z,11.95
2023-08-06T02:42:46.047Z,12.08
2023-08-06T02:45:32.637Z,12.12
2023-08-06T02:48:19.462Z,12.22
2023-08-06T02:51:06.125Z,12.24
2023-08-06T02:53:53.561Z,12.18
2023-08-06T02:56:45.754Z,12.21
2023-08-06T02:59:38.702Z,12.21
2023-08-06T03:02:29.761Z,12.20
2023-08-06T03:05:28.450Z,12.12
2023-08-06T03:08:14.940Z,12.11
2023-08-06T03:11:01.393Z,12.31
2023-08-06T03:13:48.795Z,12.49
2023-08-06T03:16:36.295Z,12.31
2023-08-06T03:19:22.893Z,12.54
2023-08-06T03:22:09.381Z,12.74
2023-08-06T03:24:57.098Z,12.67
2023-08-06T03:27:45.504Z,12.74
2023-08-06T03:30:34.102Z,12.80
2023-08-06T03:33:21.173Z,12.80
2023-08-06T03:36:08.244Z,12.95
2023-08-06T03:38:55.693Z,12.76
2023-08-06T03:41:42.463Z,12.99
2023-08-06T03:44:29.413Z,12.94
2023-08-06T03:47:16.125Z,13.23
2023-08-06T03:50:03.490Z,13.21
2023-08-06T03:52:51.184Z,13.30
2023-08-06T03:55:37.559Z,13.51
2023-08-06T03:58:24.283Z,13.50
2023-08-06T04:01:10.726Z,13.42
2023-08-06T04:04:04.357Z,13.33
2023-08-06T04:06:50.600Z,13.50
2023-08-06T04:09:56.475Z,13.71
2023-08-06T04:12:43.284Z,13.60
2023-08-06T04:15:29.351Z,13.61
2023-08-06T04:18:17.887Z,13.64
2023-08-06T04:21:04.551Z,13.76
2023-08-06T04:23:51.181Z,13.55
2023-08-06T04:26:39.240Z,13.55
2023-08-06T04:29:25.409Z,13.28
2023-08-06T04:32:14.142Z,13.49
2023-08-06T04:35:06.026Z,13.50
2023-08-06T04:37:52.864Z,13.22
2023-08-06T04:40:39.245Z,13.09
2023-08-06T04:43:25.626Z,13.42
2023-08-06T04:46:12.522Z,13.49
2023-08-06T04:48:58.735Z,13.55
2023-08-06T04:51:45.167Z,13.54
2023-08-06T04:54:31.725Z,13.51
2023-08-06T04:57:17.913Z,13.67
2023-08-06T05:00:05.797Z,13.38
2023-08-06T05:02:52.358Z,13.95
2023-08-06T05:05:41.476Z,14.04
2023-08-06T05:08:27.792Z,14.02
2023-08-06T05:11:14.328Z,14.48
2023-08-06T05:14:00.624Z,14.53
2023-08-06T05:16:47.152Z,14.58
2023-08-06T05:19:33.414Z,14.62
2023-08-06T05:22:20.208Z,14.68
2023-08-06T05:25:07.631Z,14.61
2023-08-06T05:27:54.410Z,14.54
2023-08-06T05:30:41.608Z,14.11
2023-08-06T05:33:28.158Z,14.06
2023-08-06T05:36:14.858Z,14.00
2023-08-06T05:39:01.061Z,14.24
2023-08-06T05:41:47.448Z,14.19
2023-08-06T05:44:34.041Z,14.22
2023-08-06T05:47:20.793Z,14.02
2023-08-06T05:50:08.206Z,14.03
2023-08-06T05:52:54.672Z,14.09
2023-08-06T05:55:41.202Z,14.15
2023-08-06T05:58:30.167Z,13.88
2023-08-06T06:01:16.879Z,14.22
2023-08-06T06:04:03.600Z,14.13
2023-08-06T06:06:49.847Z,14.22
2023-08-06T06:09:36.213Z,14.14
2023-08-06T06:12:23.516Z,14.36
2023-08-06T06:15:10.410Z,14.22
2023-08-06T06:17:57.646Z,14.42
2023-08-06T06:20:44.140Z,14.36
2023-08-06T06:23:30.581Z,14.14
2023-08-06T06:26:17.228Z,14.39
2023-08-06T06:29:03.586Z,14.40
2023-08-06T06:31:50.443Z,14.30
2023-08-06T06:34:37.092Z,14.66
2023-08-06T06:37:23.577Z,14.61
2023-08-06T06:40:10.200Z,14.54
2023-08-06T06:42:56.730Z,14.37
2023-08-06T06:45:43.272Z,14.37
2023-08-06T06:48:32.682Z,14.48
2023-08-06T06:51:19.268Z,14.77
2023-08-06T06:54:05.503Z,14.66
2023-08-06T06:56:51.979Z,14.81
2023-08-06T06:59:39.312Z,14.72
2023-08-06T07:02:25.990Z,14.67
2023-08-06T07:05:12.444Z,14.77
2023-08-06T07:07:59.019Z,14.72
2023-08-06T07:10:45.261Z,14.84
2023-08-06T07:13:31.781Z,14.85
2023-08-06T07:16:18.046Z,14.88
2023-08-06T07:19:04.418Z,14.80
2023-08-06T07:21:50.695Z,14.86
2023-08-06T07:24:36.959Z,14.88
2023-08-06T07:27:23.402Z,14.81
2023-08-06T07:30:09.821Z,14.90
2023-08-06T07:32:56.153Z,15.34
2023-08-06T07:35:42.751Z,15.27
2023-08-06T07:38:30.959Z,14.93
2023-08-06T07:41:17.496Z,15.08
2023-08-06T07:44:03.991Z,15.32
2023-08-06T07:46:50.660Z,15.39
2023-08-06T07:49:37.235Z,15.50
2023-08-06T07:52:23.625Z,15.34
2023-08-06T07:55:09.914Z,15.68
2023-08-06T07:57:56.675Z,15.56
2023-08-06T08:00:45.533Z,15.77
2023-08-06T08:03:32.099Z,15.91
2023-08-06T08:06:18.732Z,15.95
2023-08-06T08:09:05.283Z,15.93
2023-08-06T08:11:52.144Z,16.12
2023-08-06T08:14:38.471Z,15.91
2023-08-06T08:17:25.001Z,16.35
2023-08-06T08:20:11.677Z,16.41
2023-08-06T08:23:01.787Z,16.24
2023-08-06T08:25:48.299Z,16.69
2023-08-06T08:28:34.637Z,16.91
2023-08-06T08:31:21.285Z,17.03
2023-08-06T08:34:07.702Z,17.28
2023-08-06T08:36:53.880Z,17.37
2023-08-06T08:39:40.122Z,17.38
2023-08-06T08:42:26.813Z,17.53
2023-08-06T08:45:15.619Z,17.48
2023-08-06T08:48:02.447Z,17.33
2023-08-06T08:50:50.337Z,16.76
2023-08-06T08:53:40.419Z,16.73
2023-08-06T08:56:26.789Z,16.28
2023-08-06T08:59:13.229Z,16.71
2023-08-06T09:02:02.144Z,16.68
2023-08-06T09:04:49.793Z,16.75
2023-08-06T09:07:43.298Z,16.84
2023-08-06T09:10:29.700Z,16.87
2023-08-06T09:13:15.916Z,16.87
2023-08-06T09:16:02.302Z,17.15
2023-08-06T09:18:48.701Z,17.42
2023-08-06T09:21:39.296Z,17.40
2023-08-06T09:24:27.360Z,17.34
2023-08-06T09:27:15.321Z,17.31
2023-08-06T09:30:01.810Z,17.13
2023-08-06T09:32:49.876Z,16.97
2023-08-06T09:35:36.247Z,17.00
2023-08-06T09:38:22.642Z,17.15
2023-08-06T09:41:09.643Z,16.97
2023-08-06T09:43:56.139Z,16.92
2023-08-06T09:46:42.224Z,16.76
2023-08-06T09:49:42.638Z,17.14
2023-08-06T09:52:29.572Z,16.99
2023-08-06T09:55:16.232Z,16.62
2023-08-06T09:58:03.635Z,16.73
2023-08-06T10:00:50.177Z,16.65
2023-08-06T10:03:37.902Z,16.79
2023-08-06T10:06:25.448Z,16.75
2023-08-06T10:09:12.211Z,17.04
2023-08-06T10:11:59.140Z,17.09
2023-08-06T10:14:47.690Z,17.09
2023-08-06T10:17:49.249Z,16.87
2023-08-06T10:20:37.365Z,16.92
2023-08-06T10:23:34.340Z,16.87
2023-08-06T10:26:20.973Z,16.98
2023-08-06T10:29:37.503Z,17.14
2023-08-06T10:32:50.448Z,17.09
2023-08-06T10:35:37.086Z,17.06
2023-08-06T10:38:28.770Z,16.76
2023-08-06T10:41:33.557Z,16.78
2023-08-06T10:44:22.066Z,16.70
2023-08-06T10:47:31.484Z,16.45
2023-08-06T10:50:18.955Z,16.40
2023-08-06T10:53:07.180Z,16.10
2023-08-06T10:55:53.446Z,16.33
2023-08-06T10:58:39.767Z,16.44
2023-08-06T11:01:30.720Z,16.27
2023-08-06T11:04:18.203Z,16.36
2023-08-06T11:07:04.561Z,16.52
2023-08-06T11:09:52.163Z,16.45
2023-08-06T11:12:39.323Z,16.66
2023-08-06T11:15:25.587Z,16.88
2023-08-06T11:18:12.301Z,17.06
2023-08-06T11:21:01.407Z,17.29
2023-08-06T11:23:47.874Z,16.96
2023-08-06T11:26:34.116Z,17.26
2023-08-06T11:29:20.787Z,17.22
2023-08-06T11:32:07.304Z,16.87
2023-08-06T11:34:56.301Z,16.75
2023-08-06T11:37:49.084Z,16.43
2023-08-06T11:40:36.882Z,16.17
2023-08-06T11:43:23.937Z,15.85
2023-08-06T11:46:11.617Z,15.77
2023-08-06T11:49:00.489Z,15.13
2023-08-06T11:51:47.012Z,15.07
2023-08-06T11:54:38.086Z,14.82
2023-08-06T11:57:24.465Z,14.61
2023-08-06T12:00:15.085Z,14.57
2023-08-06T12:03:03.187Z,14.47
2023-08-06T12:05:49.446Z,14.50
2023-08-06T12:08:35.875Z,14.21
2023-08-06T12:11:22.707Z,14.18
2023-08-06T12:14:09.330Z,14.16
2023-08-06T12:16:55.843Z,14.24
2023-08-06T12:19:42.483Z,14.31
2023-08-06T12:22:29.182Z,14.39
2023-08-06T12:25:15.327Z,14.47
2023-08-06T12:28:01.958Z,14.42
2023-08-06T12:30:49.785Z,14.78
2023-08-06T12:33:36.044Z,14.83
2023-08-06T12:36:22.843Z,14.94
2023-08-06T12:39:09.110Z,14.90
2023-08-06T12:41:59.738Z,15.12
2023-08-06T12:44:49.806Z,15.17
2023-08-06T12:47:36.154Z,15.12
2023-08-06T12:50:22.716Z,15.14
2023-08-06T12:53:09.937Z,15.33
2023-08-06T12:55:56.309Z,15.57
2023-08-06T12:58:43.645Z,15.38
2023-08-06T13:01:29.808Z,15.50
2023-08-06T13:04:22.662Z,15.36
2023-08-06T13:07:10.051Z,15.45
2023-08-06T13:09:56.327Z,15.23
2023-08-06T13:12:42.526Z,15.40
2023-08-06T13:15:28.974Z,15.25
2023-08-06T13:18:15.329Z,15.22
2023-08-06T13:21:01.714Z,15.07
2023-08-06T13:23:48.840Z,14.77
2023-08-06T13:26:35.435Z,15.23
2023-08-06T13:29:21.927Z,15.45
2023-08-06T13:32:08.247Z,15.65
2023-08-06T13:34:54.701Z,15.94
2023-08-06T13:37:40.831Z,16.12
2023-08-06T13:40:27.342Z,16.05
2023-08-06T13:43:16.882Z,16.36
2023-08-06T13:46:03.392Z,16.19
2023-08-06T13:48:52.854Z,16.15
2023-08-06T13:51:39.510Z,16.00
2023-08-06T13:54:25.884Z,15.89
2023-08-06T13:57:11.981Z,16.04
2023-08-06T13:59:58.432Z,15.88
2023-08-06T14:02:45.635Z,15.85
2023-08-06T14:05:31.837Z,15.71
2023-08-06T14:08:21.331Z,15.65
2023-08-06T14:11:08.064Z,15.39
2023-08-06T14:13:54.952Z,15.16
2023-08-06T14:16:41.335Z,15.18
2023-08-06T14:19:27.638Z,15.19
2023-08-06T14:22:13.866Z,14.99
2023-08-06T14:25:00.634Z,15.10
2023-08-06T14:27:46.980Z,15.07
2023-08-06T14:30:34.618Z,14.93
2023-08-06T14:33:27.311Z,15.08
2023-08-06T14:36:14.334Z,14.93
2023-08-06T14:39:01.030Z,15.27
2023-08-06T14:41:48.270Z,15.39
2023-08-06T14:44:34.523Z,15.56
2023-08-06T14:47:21.041Z,15.81
2023-08-06T14:50:07.397Z,15.79
2023-08-06T14:52:53.615Z,15.78
2023-08-06T14:55:39.847Z,15.80
2023-08-06T14:58:26.168Z,15.74
2023-08-06T15:01:12.304Z,15.63
2023-08-06T15:03:59.813Z,15.56
2023-08-06T15:06:46.383Z,15.47
2023-08-06T15:09:37.678Z,15.53
2023-08-06T15:12:32.593Z,15.55
2023-08-06T15:15:19.288Z,15.13
2023-08-06T15:18:05.590Z,15.31
2023-08-06T15:20:52.205Z,15.33
2023-08-06T15:23:38.938Z,15.29
2023-08-06T15:26:25.444Z,15.28
2023-08-06T15:29:12.058Z,15.22
2023-08-06T15:31:58.563Z,14.90
2023-08-06T15:34:45.692Z,15.04
2023-08-06T15:37:32.008Z,15.30
2023-08-06T15:40:18.282Z,15.35
2023-08-06T15:43:05.289Z,15.41
2023-08-06T15:45:51.569Z,15.61
2023-08-06T15:48:38.100Z,15.41
2023-08-06T15:51:24.608Z,15.55
2023-08-06T15:54:11.132Z,15.42
2023-08-06T15:56:57.579Z,15.25
2023-08-06T15:59:43.869Z,15.13
2023-08-06T16:02:30.467Z,14.88
2023-08-06T16:05:16.825Z,14.72
2023-08-06T16:08:03.034Z,14.52
2023-08-06T16:10:49.447Z,14.23
2023-08-06T16:13:35.884Z,14.24
2023-08-06T16:16:22.417Z,14.19
2023-08-06T16:19:08.798Z,14.07
2023-08-06T16:21:55.230Z,14.04
2023-08-06T16:24:41.628Z,13.83
2023-08-06T16:27:28.099Z,13.67
2023-08-06T16:30:16.979Z,13.59
2023-08-06T16:33:03.697Z,13.75
2023-08-06T16:35:50.183Z,13.70
2023-08-06T16:38:36.561Z,13.38
2023-08-06T16:41:23.452Z,13.62
2023-08-06T16:44:13.437Z,13.25
2023-08-06T16:47:00.456Z,13.57
2023-08-06T16:49:47.052Z,13.56
2023-08-06T16:52:33.739Z,13.72
2023-08-06T16:55:20.260Z,13.60
2023-08-06T16:58:06.760Z,13.47
2023-08-06T17:00:53.982Z,13.61
2023-08-06T17:03:40.403Z,13.37
2023-08-06T17:06:26.830Z,13.72
2023-08-06T17:09:13.485Z,13.60
2023-08-06T17:11:59.966Z,13.43
2023-08-06T17:14:47.297Z,13.64
2023-08-06T17:17:33.986Z,13.66
2023-08-06T17:20:20.364Z,13.52
2023-08-06T17:23:07.112Z,13.53
2023-08-06T17:25:54.788Z,13.50
2023-08-06T17:28:41.308Z,13.51
2023-08-06T17:31:27.586Z,13.70
2023-08-06T17:34:14.688Z,13.58
2023-08-06T17:37:01.332Z,13.85
2023-08-06T17:39:47.530Z,13.85
2023-08-06T17:42:34.256Z,13.56
2023-08-06T17:45:20.583Z,13.76
2023-08-06T17:48:06.871Z,13.54
2023-08-06T17:50:53.317Z,13.71
2023-08-06T17:53:39.756Z,13.49
2023-08-06T17:56:26.517Z,13.61
2023-08-06T17:59:13.178Z,13.43
2023-08-06T18:01:59.874Z,13.44
2023-08-06T18:04:46.371Z,13.60
2023-08-06T18:07:32.872Z,13.60
2023-08-06T18:10:19.153Z,13.46
2023-08-06T18:13:05.513Z,13.61
2023-08-06T18:15:54.636Z,13.62
2023-08-06T18:18:42.124Z,13.59
2023-08-06T18:21:28.646Z,13.42
2023-08-06T18:24:15.048Z,13.55
2023-08-06T18:27:02.902Z,13.12
2023-08-06T18:29:49.153Z,13.45
2023-08-06T18:32:35.645Z,13.39
2023-08-06T18:35:22.086Z,13.33
2023-08-06T18:38:09.292Z,13.36
2023-08-06T18:40:59.738Z,13.43
2023-08-06T18:43:46.223Z,13.29
2023-08-06T18:46:32.420Z,13.34
2023-08-06T18:49:18.905Z,13.19
2023-08-06T18:52:06.990Z,13.34
2023-08-06T18:54:53.634Z,13.02
2023-08-06T18:57:39.948Z,13.26
2023-08-06T19:00:26.375Z,13.47
2023-08-06T19:03:12.898Z,13.26
2023-08-06T19:06:05.484Z,13.38
2023-08-06T19:08:52.081Z,13.52
2023-08-06T19:11:38.302Z,13.45
2023-08-06T19:14:24.637Z,13.77
2023-08-06T19:17:10.793Z,13.63
2023-08-06T19:19:57.003Z,13.38
2023-08-06T19:22:43.486Z,13.48
2023-08-06T19:25:30.487Z,13.65
2023-08-06T19:28:17.502Z,13.83
2023-08-06T19:31:03.726Z,13.55
2023-08-06T19:33:50.279Z,13.71
2023-08-06T19:36:36.501Z,13.73
2023-08-06T19:39:22.949Z,13.58
2023-08-06T19:42:09.213Z,13.82
2023-08-06T19:44:55.932Z,13.76
2023-08-06T19:47:42.165Z,13.82
2023-08-06T19:50:28.685Z,13.77
2023-08-06T19:53:15.242Z,13.81
2023-08-06T19:56:03.938Z,13.82
2023-08-06T19:58:50.843Z,13.82
2023-08-06T20:01:37.201Z,13.90
2023-08-06T20:04:23.382Z,13.70
2023-08-06T20:07:09.862Z,13.43
2023-08-06T20:09:56.418Z,13.62
2023-08-06T20:12:42.813Z,13.57
2023-08-06T20:15:29.287Z,13.49
2023-08-06T20:18:16.321Z,13.47
2023-08-06T20:21:03.377Z,13.17
2023-08-06T20:23:49.882Z,13.01
2023-08-06T20:26:36.165Z,12.75
2023-08-06T20:29:22.376Z,12.63
2023-08-06T20:32:09.094Z,12.51
2023-08-06T20:34:55.700Z,12.28
2023-08-06T20:37:42.135Z,12.36
2023-08-06T20:40:28.457Z,12.46
2023-08-06T20:43:16.258Z,12.11
2023-08-06T20:46:05.248Z,12.17
2023-08-06T20:48:51.689Z,12.43
2023-08-06T20:51:38.237Z,12.24
2023-08-06T20:54:24.840Z,11.94
2023-08-06T20:57:11.044Z,12.17
2023-08-06T20:59:57.741Z,11.94
2023-08-06T21:02:43.900Z,11.80
2023-08-06T21:05:30.659Z,11.87
2023-08-06T21:08:17.312Z,11.63
2023-08-06T21:11:05.148Z,11.92
2023-08-06T21:13:51.614Z,11.97
2023-08-06T21:16:39.614Z,11.54
2023-08-06T21:19:26.091Z,11.68
2023-08-06T21:22:12.311Z,11.89
2023-08-06T21:24:59.055Z,11.61
2023-08-06T21:27:48.741Z,11.60
2023-08-06T21:30:35.189Z,11.79
2023-08-06T21:33:21.694Z,11.71
2023-08-06T21:36:09.195Z,11.85
2023-08-06T21:38:55.818Z,11.63
2023-08-06T21:41:42.387Z,11.76
2023-08-06T21:44:28.947Z,11.89
2023-08-06T21:47:15.589Z,11.71
2023-08-06T21:50:01.874Z,11.78
2023-08-06T21:52:49.062Z,11.65
2023-08-06T21:55:35.322Z,11.51
2023-08-06T21:58:21.783Z,11.71
2023-08-06T22:01:10.737Z,11.65
2023-08-06T22:03:57.156Z,11.68
2023-08-06T22:06:43.300Z,11.90
2023-08-06T22:09:29.905Z,11.80
2023-08-06T22:12:16.450Z,11.71
2023-08-06T22:15:03.121Z,11.79
2023-08-06T22:17:49.346Z,11.70
2023-08-06T22:20:36.184Z,11.74
2023-08-06T22:23:22.614Z,11.65
2023-08-06T22:26:08.852Z,11.60
2023-08-06T22:29:01.270Z,11.65
2023-08-06T22:31:47.942Z,11.39
2023-08-06T22:34:35.151Z,11.82
2023-08-06T22:37:21.489Z,11.57
2023-08-06T22:40:08.889Z,11.49
2023-08-06T22:42:55.254Z,11.65
2023-08-06T22:45:41.707Z,11.76
2023-08-06T22:48:28.301Z,11.62
2023-08-06T22:51:15.830Z,11.66
2023-08-06T22:54:02.188Z,11.61
2023-08-06T22:56:48.420Z,11.41
2023-08-06T22:59:35.077Z,11.60
2023-08-06T23:02:22.478Z,11.49
2023-08-06T23:05:09.289Z,11.65
2023-08-06T23:07:55.331Z,11.54
2023-08-06T23:10:41.800Z,11.51
2023-08-06T23:13:28.285Z,11.59
2023-08-06T23:16:15.250Z,11.64
2023-08-06T23:19:01.526Z,11.44
2023-08-06T23:21:48.292Z,11.62
2023-08-06T23:24:34.657Z,11.54
2023-08-06T23:27:21.551Z,11.29
2023-08-06T23:30:08.299Z,11.48
2023-08-06T23:32:54.755Z,11.59
2023-08-06T23:35:41.118Z,11.69
2023-08-06T23:38:27.503Z,11.64
2023-08-06T23:41:13.951Z,11.53
2023-08-06T23:44:00.211Z,11.43
2023-08-06T23:46:46.624Z,11.53
2023-08-06T23:49:33.214Z,11.60
2023-08-06T23:52:19.771Z,11.54
2023-08-06T23:55:06.560Z,11.45
2023-08-06T23:57:53.414Z,11.55
